sensor_id;sensor_type;location;lat;lon;timestamp;noise_LAeq;noise_LA_min;noise_LA_max;noise_LA01;noise_LA95
43168;Laerm;28773;48.804;9.024;2023-01-29T00:02:22;32.53;30.71;37.04;;
43168;Laerm;28773;48.804;9.024;2023-01-29T00:04:47;32.15;30.95;34.67;;
43168;Laerm;28773;48.804;9.024;2023-01-29T00:07:13;32.28;30.73;35.83;;
43168;Laerm;28773;48.804;9.024;2023-01-29T00:09:38;32.47;30.90;38.20;;
43168;Laerm;28773;48.804;9.024;2023-01-29T00:12:04;32.16;30.78;35.03;;
43168;Laerm;28773;48.804;9.024;2023-01-29T00:14:29;32.23;30.87;38.01;;
43168;Laerm;28773;48.804;9.024;2023-01-29T00:16:54;32.48;30.79;39.87;;
43168;Laerm;28773;48.804;9.024;2023-01-29T00:19:19;32.38;30.70;38.55;;
43168;Laerm;28773;48.804;9.024;2023-01-29T00:21:45;32.51;30.85;39.25;;
43168;Laerm;28773;48.804;9.024;2023-01-29T00:24:10;32.27;30.69;36.93;;
43168;Laerm;28773;48.804;9.024;2023-01-29T00:26:35;32.16;30.89;35.52;;
43168;Laerm;28773;48.804;9.024;2023-01-29T00:29:02;32.26;30.75;36.85;;
43168;Laerm;28773;48.804;9.024;2023-01-29T00:31:28;32.42;30.88;37.99;;
43168;Laerm;28773;48.804;9.024;2023-01-29T00:33:53;32.24;30.85;36.88;;
43168;Laerm;28773;48.804;9.024;2023-01-29T00:36:18;32.53;30.70;37.74;;
43168;Laerm;28773;48.804;9.024;2023-01-29T00:38:44;32.26;30.85;35.31;;
43168;Laerm;28773;48.804;9.024;2023-01-29T00:41:18;32.19;30.78;37.01;;
43168;Laerm;28773;48.804;9.024;2023-01-29T00:44:02;32.19;30.75;37.45;;
43168;Laerm;28773;48.804;9.024;2023-01-29T00:46:46;32.48;30.74;39.37;;
43168;Laerm;28773;48.804;9.024;2023-01-29T00:49:11;32.06;30.93;33.33;;
43168;Laerm;28773;48.804;9.024;2023-01-29T00:51:36;32.46;30.86;38.94;;
43168;Laerm;28773;48.804;9.024;2023-01-29T00:54:02;32.14;30.81;35.65;;
43168;Laerm;28773;48.804;9.024;2023-01-29T00:56:28;32.25;30.92;36.11;;
43168;Laerm;28773;48.804;9.024;2023-01-29T00:58:54;32.31;30.87;36.18;;
43168;Laerm;28773;48.804;9.024;2023-01-29T01:01:19;32.24;30.80;35.81;;
43168;Laerm;28773;48.804;9.024;2023-01-29T01:04:05;32.21;30.75;36.27;;
43168;Laerm;28773;48.804;9.024;2023-01-29T01:06:30;32.28;30.85;37.60;;
43168;Laerm;28773;48.804;9.024;2023-01-29T01:08:55;32.28;30.52;35.85;;
43168;Laerm;28773;48.804;9.024;2023-01-29T01:11:40;32.22;30.88;35.93;;
43168;Laerm;28773;48.804;9.024;2023-01-29T01:14:05;32.35;30.78;36.49;;
43168;Laerm;28773;48.804;9.024;2023-01-29T01:16:30;32.37;30.57;36.63;;
43168;Laerm;28773;48.804;9.024;2023-01-29T01:18:55;32.34;30.71;38.61;;
43168;Laerm;28773;48.804;9.024;2023-01-29T01:21:20;32.19;30.67;36.57;;
43168;Laerm;28773;48.804;9.024;2023-01-29T01:23:45;32.09;30.55;36.40;;
43168;Laerm;28773;48.804;9.024;2023-01-29T01:26:11;32.17;30.81;36.73;;
43168;Laerm;28773;48.804;9.024;2023-01-29T01:28:36;32.29;30.79;38.50;;
43168;Laerm;28773;48.804;9.024;2023-01-29T01:31:11;32.21;30.79;37.42;;
43168;Laerm;28773;48.804;9.024;2023-01-29T01:33:37;32.06;30.78;34.63;;
43168;Laerm;28773;48.804;9.024;2023-01-29T01:36:03;32.06;30.59;34.36;;
43168;Laerm;28773;48.804;9.024;2023-01-29T01:38:28;32.19;30.60;39.84;;
43168;Laerm;28773;48.804;9.024;2023-01-29T01:40:53;32.15;30.76;37.73;;
43168;Laerm;28773;48.804;9.024;2023-01-29T01:43:18;32.25;30.79;37.93;;
43168;Laerm;28773;48.804;9.024;2023-01-29T01:45:43;32.01;30.44;33.31;;
43168;Laerm;28773;48.804;9.024;2023-01-29T01:48:18;32.01;30.62;33.27;;
43168;Laerm;28773;48.804;9.024;2023-01-29T01:50:47;32.08;30.56;35.89;;
43168;Laerm;28773;48.804;9.024;2023-01-29T01:53:15;32.01;30.62;33.28;;
43168;Laerm;28773;48.804;9.024;2023-01-29T01:55:44;32.02;30.71;33.28;;
43168;Laerm;28773;48.804;9.024;2023-01-29T01:58:14;32.25;30.88;37.64;;
43168;Laerm;28773;48.804;9.024;2023-01-29T02:00:40;32.38;30.73;40.88;;
43168;Laerm;28773;48.804;9.024;2023-01-29T02:03:06;32.11;30.78;35.70;;
43168;Laerm;28773;48.804;9.024;2023-01-29T02:05:52;32.14;30.73;35.00;;
43168;Laerm;28773;48.804;9.024;2023-01-29T02:08:51;32.19;30.58;36.87;;
43168;Laerm;28773;48.804;9.024;2023-01-29T02:11:37;32.08;30.63;36.51;;
43168;Laerm;28773;48.804;9.024;2023-01-29T02:14:03;32.15;30.52;34.99;;
43168;Laerm;28773;48.804;9.024;2023-01-29T02:16:28;32.13;30.74;35.40;;
43168;Laerm;28773;48.804;9.024;2023-01-29T02:18:53;32.05;30.67;33.20;;
43168;Laerm;28773;48.804;9.024;2023-01-29T02:21:19;32.18;30.86;36.36;;
43168;Laerm;28773;48.804;9.024;2023-01-29T02:29:01;32.32;30.69;36.03;;
43168;Laerm;28773;48.804;9.024;2023-01-29T02:31:51;32.18;30.89;34.93;;
43168;Laerm;28773;48.804;9.024;2023-01-29T02:37:24;32.05;30.65;33.11;;
43168;Laerm;28773;48.804;9.024;2023-01-29T02:39:52;32.05;30.77;33.18;;
43168;Laerm;28773;48.804;9.024;2023-01-29T02:42:23;32.06;30.77;33.37;;
43168;Laerm;28773;48.804;9.024;2023-01-29T02:44:54;32.21;30.71;37.52;;
43168;Laerm;28773;48.804;9.024;2023-01-29T02:47:29;32.13;30.78;34.88;;
43168;Laerm;28773;48.804;9.024;2023-01-29T02:52:34;32.08;30.86;33.41;;
43168;Laerm;28773;48.804;9.024;2023-01-29T02:55:03;32.13;30.74;35.29;;
43168;Laerm;28773;48.804;9.024;2023-01-29T02:57:32;32.07;30.68;33.34;;
43168;Laerm;28773;48.804;9.024;2023-01-29T03:00:32;32.11;30.90;34.65;;
43168;Laerm;28773;48.804;9.024;2023-01-29T03:02:52;32.07;30.67;33.33;;
43168;Laerm;28773;48.804;9.024;2023-01-29T03:06:02;32.17;30.81;35.34;;
43168;Laerm;28773;48.804;9.024;2023-01-29T03:08:09;32.06;30.88;33.29;;
43168;Laerm;28773;48.804;9.024;2023-01-29T03:10:38;32.27;30.89;36.83;;
43168;Laerm;28773;48.804;9.024;2023-01-29T03:13:09;32.14;30.81;36.58;;
43168;Laerm;28773;48.804;9.024;2023-01-29T03:15:44;32.29;30.64;39.37;;
43168;Laerm;28773;48.804;9.024;2023-01-29T03:18:12;32.05;30.88;33.30;;
43168;Laerm;28773;48.804;9.024;2023-01-29T03:20:40;32.13;30.58;35.31;;
43168;Laerm;28773;48.804;9.024;2023-01-29T03:23:13;32.04;30.79;33.28;;
43168;Laerm;28773;48.804;9.024;2023-01-29T03:25:41;32.20;30.71;37.04;;
43168;Laerm;28773;48.804;9.024;2023-01-29T03:28:26;32.42;30.87;41.82;;
43168;Laerm;28773;48.804;9.024;2023-01-29T03:31:11;32.08;30.83;34.66;;
43168;Laerm;28773;48.804;9.024;2023-01-29T03:34:05;32.10;30.80;35.03;;
43168;Laerm;28773;48.804;9.024;2023-01-29T03:36:36;32.12;30.73;35.79;;
43168;Laerm;28773;48.804;9.024;2023-01-29T03:39:09;32.08;30.77;34.59;;
43168;Laerm;28773;48.804;9.024;2023-01-29T03:41:51;32.14;30.74;36.37;;
43168;Laerm;28773;48.804;9.024;2023-01-29T03:51:53;32.03;30.83;33.24;;
43168;Laerm;28773;48.804;9.024;2023-01-29T03:54:45;32.02;30.56;33.22;;
43168;Laerm;28773;48.804;9.024;2023-01-29T03:57:11;32.03;30.58;33.25;;
43168;Laerm;28773;48.804;9.024;2023-01-29T03:59:45;32.03;30.82;33.35;;
43168;Laerm;28773;48.804;9.024;2023-01-29T04:02:20;32.08;30.68;34.45;;
43168;Laerm;28773;48.804;9.024;2023-01-29T04:04:52;32.11;30.81;36.12;;
43168;Laerm;28773;48.804;9.024;2023-01-29T04:07:20;32.08;30.61;34.64;;
43168;Laerm;28773;48.804;9.024;2023-01-29T04:12:24;32.05;30.79;33.19;;
43168;Laerm;28773;48.804;9.024;2023-01-29T04:14:51;32.12;30.79;35.25;;
43168;Laerm;28773;48.804;9.024;2023-01-29T04:17:19;32.13;30.60;34.28;;
43168;Laerm;28773;48.804;9.024;2023-01-29T04:19:46;32.06;30.66;33.40;;
43168;Laerm;28773;48.804;9.024;2023-01-29T04:22:19;32.13;31.01;35.07;;
43168;Laerm;28773;48.804;9.024;2023-01-29T04:24:45;32.27;30.87;36.67;;
43168;Laerm;28773;48.804;9.024;2023-01-29T04:34:58;32.19;30.84;35.96;;
43168;Laerm;28773;48.804;9.024;2023-01-29T04:39:57;32.20;30.91;35.85;;
43168;Laerm;28773;48.804;9.024;2023-01-29T04:45:03;32.16;30.89;33.30;;
43168;Laerm;28773;48.804;9.024;2023-01-29T04:50:01;32.30;30.75;36.50;;
43168;Laerm;28773;48.804;9.024;2023-01-29T04:52:31;32.21;30.81;33.49;;
43168;Laerm;28773;48.804;9.024;2023-01-29T04:55:02;32.22;30.88;33.35;;
43168;Laerm;28773;48.804;9.024;2023-01-29T04:59:57;32.43;30.86;39.47;;
43168;Laerm;28773;48.804;9.024;2023-01-29T05:02:24;32.32;31.00;35.97;;
43168;Laerm;28773;48.804;9.024;2023-01-29T05:04:50;32.45;31.12;36.49;;
43168;Laerm;28773;48.804;9.024;2023-01-29T05:07:16;32.28;30.79;33.62;;
43168;Laerm;28773;48.804;9.024;2023-01-29T05:09:43;32.48;30.66;36.48;;
43168;Laerm;28773;48.804;9.024;2023-01-29T05:12:09;32.45;31.18;36.82;;
43168;Laerm;28773;48.804;9.024;2023-01-29T05:14:36;32.38;31.08;36.91;;
43168;Laerm;28773;48.804;9.024;2023-01-29T05:17:04;32.29;31.02;33.61;;
43168;Laerm;28773;48.804;9.024;2023-01-29T05:19:33;32.39;30.99;37.74;;
43168;Laerm;28773;48.804;9.024;2023-01-29T05:21:58;32.29;30.78;33.50;;
43168;Laerm;28773;48.804;9.024;2023-01-29T05:24:24;32.44;31.03;38.45;;
43168;Laerm;28773;48.804;9.024;2023-01-29T05:26:51;32.34;30.94;36.25;;
43168;Laerm;28773;48.804;9.024;2023-01-29T05:29:35;32.32;30.96;33.58;;
43168;Laerm;28773;48.804;9.024;2023-01-29T05:32:00;32.67;31.01;38.77;;
43168;Laerm;28773;48.804;9.024;2023-01-29T05:34:25;32.38;30.98;37.56;;
43168;Laerm;28773;48.804;9.024;2023-01-29T05:36:51;32.34;30.97;33.53;;
43168;Laerm;28773;48.804;9.024;2023-01-29T05:39:16;32.33;31.14;33.59;;
43168;Laerm;28773;48.804;9.024;2023-01-29T05:41:41;32.45;30.97;37.14;;
43168;Laerm;28773;48.804;9.024;2023-01-29T05:44:08;32.47;31.25;35.58;;
43168;Laerm;28773;48.804;9.024;2023-01-29T05:46:33;32.55;30.83;36.77;;
43168;Laerm;28773;48.804;9.024;2023-01-29T05:48:58;32.34;30.75;34.57;;
43168;Laerm;28773;48.804;9.024;2023-01-29T05:51:23;32.31;31.02;34.53;;
43168;Laerm;28773;48.804;9.024;2023-01-29T05:53:49;32.58;31.03;39.34;;
43168;Laerm;28773;48.804;9.024;2023-01-29T05:56:14;32.48;31.08;38.58;;
43168;Laerm;28773;48.804;9.024;2023-01-29T05:58:39;32.34;31.02;36.05;;
43168;Laerm;28773;48.804;9.024;2023-01-29T06:01:08;32.26;30.72;33.96;;
43168;Laerm;28773;48.804;9.024;2023-01-29T06:03:33;32.30;30.90;35.70;;
43168;Laerm;28773;48.804;9.024;2023-01-29T06:06:00;32.37;30.91;35.21;;
43168;Laerm;28773;48.804;9.024;2023-01-29T06:08:25;32.57;30.92;38.07;;
43168;Laerm;28773;48.804;9.024;2023-01-29T06:10:50;32.25;30.99;33.33;;
43168;Laerm;28773;48.804;9.024;2023-01-29T06:13:15;32.41;30.62;38.74;;
43168;Laerm;28773;48.804;9.024;2023-01-29T06:15:40;32.43;30.86;36.73;;
43168;Laerm;28773;48.804;9.024;2023-01-29T06:18:05;32.43;30.82;40.11;;
43168;Laerm;28773;48.804;9.024;2023-01-29T06:20:31;32.23;30.91;33.45;;
43168;Laerm;28773;48.804;9.024;2023-01-29T06:22:56;32.27;30.89;35.07;;
43168;Laerm;28773;48.804;9.024;2023-01-29T06:25:22;32.21;30.91;33.42;;
43168;Laerm;28773;48.804;9.024;2023-01-29T06:27:49;32.21;31.03;33.46;;
43168;Laerm;28773;48.804;9.024;2023-01-29T06:30:14;32.18;30.97;33.43;;
43168;Laerm;28773;48.804;9.024;2023-01-29T06:32:39;32.57;30.90;39.34;;
43168;Laerm;28773;48.804;9.024;2023-01-29T06:35:05;32.39;30.66;38.78;;
43168;Laerm;28773;48.804;9.024;2023-01-29T06:37:30;32.24;30.82;34.25;;
43168;Laerm;28773;48.804;9.024;2023-01-29T06:39:55;32.30;30.88;35.95;;
43168;Laerm;28773;48.804;9.024;2023-01-29T06:42:20;32.29;30.87;36.72;;
43168;Laerm;28773;48.804;9.024;2023-01-29T06:44:51;32.22;30.95;34.71;;
43168;Laerm;28773;48.804;9.024;2023-01-29T06:47:16;32.24;30.97;35.01;;
43168;Laerm;28773;48.804;9.024;2023-01-29T06:49:41;32.32;30.71;37.04;;
43168;Laerm;28773;48.804;9.024;2023-01-29T06:52:08;32.52;31.05;38.00;;
43168;Laerm;28773;48.804;9.024;2023-01-29T06:54:33;32.22;30.94;34.40;;
43168;Laerm;28773;48.804;9.024;2023-01-29T06:56:58;32.25;30.92;35.81;;
43168;Laerm;28773;48.804;9.024;2023-01-29T06:59:25;32.29;30.71;37.29;;
43168;Laerm;28773;48.804;9.024;2023-01-29T07:01:50;32.48;30.62;39.38;;
43168;Laerm;28773;48.804;9.024;2023-01-29T07:04:15;32.40;30.93;36.91;;
43168;Laerm;28773;48.804;9.024;2023-01-29T07:06:41;32.18;30.74;34.74;;
43168;Laerm;28773;48.804;9.024;2023-01-29T07:09:06;32.33;30.64;36.05;;
43168;Laerm;28773;48.804;9.024;2023-01-29T07:11:32;32.45;30.63;38.70;;
43168;Laerm;28773;48.804;9.024;2023-01-29T07:13:58;32.29;31.01;35.50;;
43168;Laerm;28773;48.804;9.024;2023-01-29T07:16:23;32.22;30.92;34.54;;
43168;Laerm;28773;48.804;9.024;2023-01-29T07:18:50;32.64;30.91;39.41;;
43168;Laerm;28773;48.804;9.024;2023-01-29T07:21:15;32.24;30.65;35.99;;
43168;Laerm;28773;48.804;9.024;2023-01-29T07:23:40;32.89;30.58;37.88;;
43168;Laerm;28773;48.804;9.024;2023-01-29T07:26:05;32.34;30.79;36.22;;
43168;Laerm;28773;48.804;9.024;2023-01-29T07:28:31;32.58;30.89;39.22;;
43168;Laerm;28773;48.804;9.024;2023-01-29T07:30:59;32.32;30.52;36.64;;
43168;Laerm;28773;48.804;9.024;2023-01-29T07:33:24;32.91;30.99;39.05;;
43168;Laerm;28773;48.804;9.024;2023-01-29T07:35:50;32.46;30.59;38.72;;
43168;Laerm;28773;48.804;9.024;2023-01-29T07:38:16;32.96;30.79;39.32;;
43168;Laerm;28773;48.804;9.024;2023-01-29T07:40:41;32.46;30.83;36.22;;
43168;Laerm;28773;48.804;9.024;2023-01-29T07:43:06;32.31;30.76;38.53;;
43168;Laerm;28773;48.804;9.024;2023-01-29T07:45:33;32.76;31.01;38.47;;
43168;Laerm;28773;48.804;9.024;2023-01-29T07:47:59;32.67;30.84;37.94;;
43168;Laerm;28773;48.804;9.024;2023-01-29T07:50:24;32.45;30.65;37.61;;
43168;Laerm;28773;48.804;9.024;2023-01-29T07:52:50;32.50;30.77;39.48;;
43168;Laerm;28773;48.804;9.024;2023-01-29T07:55:15;32.91;30.85;38.58;;
43168;Laerm;28773;48.804;9.024;2023-01-29T07:57:41;32.60;30.84;38.38;;
43168;Laerm;28773;48.804;9.024;2023-01-29T08:00:06;32.13;30.70;35.62;;
43168;Laerm;28773;48.804;9.024;2023-01-29T08:02:32;32.47;30.67;37.45;;
43168;Laerm;28773;48.804;9.024;2023-01-29T08:04:57;32.27;30.81;37.43;;
43168;Laerm;28773;48.804;9.024;2023-01-29T08:07:22;32.61;30.95;39.32;;
43168;Laerm;28773;48.804;9.024;2023-01-29T08:09:47;32.58;30.82;37.98;;
43168;Laerm;28773;48.804;9.024;2023-01-29T08:12:12;32.35;30.75;37.44;;
43168;Laerm;28773;48.804;9.024;2023-01-29T08:14:37;32.74;30.91;38.95;;
43168;Laerm;28773;48.804;9.024;2023-01-29T08:17:03;32.23;30.92;37.33;;
43168;Laerm;28773;48.804;9.024;2023-01-29T08:19:28;32.76;30.77;39.70;;
43168;Laerm;28773;48.804;9.024;2023-01-29T08:21:53;32.55;30.70;37.58;;
43168;Laerm;28773;48.804;9.024;2023-01-29T08:24:18;32.74;30.84;39.23;;
43168;Laerm;28773;48.804;9.024;2023-01-29T08:26:44;32.61;30.86;38.22;;
43168;Laerm;28773;48.804;9.024;2023-01-29T08:29:10;32.92;30.75;39.58;;
43168;Laerm;28773;48.804;9.024;2023-01-29T08:31:35;32.38;30.67;37.11;;
43168;Laerm;28773;48.804;9.024;2023-01-29T08:34:00;32.70;30.88;38.90;;
43168;Laerm;28773;48.804;9.024;2023-01-29T08:36:25;32.63;30.81;37.78;;
43168;Laerm;28773;48.804;9.024;2023-01-29T08:38:51;32.41;30.76;37.48;;
43168;Laerm;28773;48.804;9.024;2023-01-29T08:41:16;32.74;30.92;37.80;;
43168;Laerm;28773;48.804;9.024;2023-01-29T08:43:41;32.52;30.78;37.95;;
43168;Laerm;28773;48.804;9.024;2023-01-29T08:46:06;32.83;30.80;39.30;;
43168;Laerm;28773;48.804;9.024;2023-01-29T08:48:31;32.62;30.92;37.87;;
43168;Laerm;28773;48.804;9.024;2023-01-29T08:50:57;32.77;30.91;39.65;;
43168;Laerm;28773;48.804;9.024;2023-01-29T08:53:23;32.66;30.70;38.26;;
43168;Laerm;28773;48.804;9.024;2023-01-29T08:55:49;33.10;30.83;39.86;;
43168;Laerm;28773;48.804;9.024;2023-01-29T08:58:14;33.09;30.62;39.45;;
43168;Laerm;28773;48.804;9.024;2023-01-29T09:00:39;32.46;30.83;37.60;;
43168;Laerm;28773;48.804;9.024;2023-01-29T09:03:04;32.89;30.77;39.38;;
43168;Laerm;28773;48.804;9.024;2023-01-29T09:05:31;32.74;30.84;39.04;;
43168;Laerm;28773;48.804;9.024;2023-01-29T09:07:57;32.74;30.55;38.01;;
43168;Laerm;28773;48.804;9.024;2023-01-29T09:10:22;32.40;30.67;38.37;;
43168;Laerm;28773;48.804;9.024;2023-01-29T09:12:48;32.57;30.58;40.03;;
43168;Laerm;28773;48.804;9.024;2023-01-29T09:15:13;32.23;30.62;37.19;;
43168;Laerm;28773;48.804;9.024;2023-01-29T09:17:38;32.39;30.59;39.16;;
43168;Laerm;28773;48.804;9.024;2023-01-29T09:20:05;32.48;30.69;38.96;;
43168;Laerm;28773;48.804;9.024;2023-01-29T09:22:30;32.09;30.61;36.16;;
43168;Laerm;28773;48.804;9.024;2023-01-29T09:24:55;32.66;30.32;39.49;;
43168;Laerm;28773;48.804;9.024;2023-01-29T09:27:20;32.53;30.44;38.00;;
43168;Laerm;28773;48.804;9.024;2023-01-29T09:29:46;32.35;30.47;37.07;;
43168;Laerm;28773;48.804;9.024;2023-01-29T09:32:11;32.39;30.44;38.86;;
43168;Laerm;28773;48.804;9.024;2023-01-29T09:34:36;32.79;30.71;37.24;;
43168;Laerm;28773;48.804;9.024;2023-01-29T09:37:01;32.64;30.75;39.06;;
43168;Laerm;28773;48.804;9.024;2023-01-29T09:39:26;32.35;30.63;37.53;;
43168;Laerm;28773;48.804;9.024;2023-01-29T09:41:54;32.50;30.55;37.03;;
43168;Laerm;28773;48.804;9.024;2023-01-29T09:44:32;32.54;30.60;39.51;;
43168;Laerm;28773;48.804;9.024;2023-01-29T09:47:08;32.72;30.45;40.18;;
43168;Laerm;28773;48.804;9.024;2023-01-29T09:49:36;32.39;30.65;39.40;;
43168;Laerm;28773;48.804;9.024;2023-01-29T09:57:24;33.08;30.72;39.31;;
43168;Laerm;28773;48.804;9.024;2023-01-29T09:59:51;32.62;30.64;38.36;;
43168;Laerm;28773;48.804;9.024;2023-01-29T10:02:40;33.02;30.61;37.77;;
43168;Laerm;28773;48.804;9.024;2023-01-29T10:05:24;32.64;30.44;38.93;;
43168;Laerm;28773;48.804;9.024;2023-01-29T10:10:26;32.50;30.45;39.27;;
43168;Laerm;28773;48.804;9.024;2023-01-29T10:13:06;32.79;30.41;38.44;;
43168;Laerm;28773;48.804;9.024;2023-01-29T10:20:39;33.40;30.58;39.85;;
43168;Laerm;28773;48.804;9.024;2023-01-29T10:23:26;33.17;30.39;41.67;;
43168;Laerm;28773;48.804;9.024;2023-01-29T10:25:53;32.44;30.46;39.58;;
43168;Laerm;28773;48.804;9.024;2023-01-29T10:30:50;32.30;30.44;39.47;;
43168;Laerm;28773;48.804;9.024;2023-01-29T10:33:21;33.04;30.24;39.60;;
43168;Laerm;28773;48.804;9.024;2023-01-29T10:35:50;33.08;30.46;39.87;;
43168;Laerm;28773;48.804;9.024;2023-01-29T10:38:30;32.77;30.47;39.32;;
43168;Laerm;28773;48.804;9.024;2023-01-29T10:41:04;32.27;30.43;38.28;;
43168;Laerm;28773;48.804;9.024;2023-01-29T10:46:37;32.35;30.41;38.79;;
43168;Laerm;28773;48.804;9.024;2023-01-29T10:49:24;32.58;30.48;39.59;;
43168;Laerm;28773;48.804;9.024;2023-01-29T10:55:02;32.54;30.37;41.12;;
43168;Laerm;28773;48.804;9.024;2023-01-29T11:03:30;32.18;30.38;38.56;;
43168;Laerm;28773;48.804;9.024;2023-01-29T11:06:32;32.67;30.40;40.51;;
43168;Laerm;28773;48.804;9.024;2023-01-29T11:09:32;33.23;30.40;40.65;;
43168;Laerm;28773;48.804;9.024;2023-01-29T11:12:00;32.76;30.43;38.72;;
43168;Laerm;28773;48.804;9.024;2023-01-29T11:16:57;32.89;30.40;39.88;;
43168;Laerm;28773;48.804;9.024;2023-01-29T11:19:36;32.83;30.43;40.51;;
43168;Laerm;28773;48.804;9.024;2023-01-29T11:22:02;32.87;30.40;39.70;;
43168;Laerm;28773;48.804;9.024;2023-01-29T11:24:28;33.13;30.45;40.66;;
43168;Laerm;28773;48.804;9.024;2023-01-29T11:26:54;32.52;30.26;40.31;;
43168;Laerm;28773;48.804;9.024;2023-01-29T11:31:56;32.72;30.42;40.62;;
43168;Laerm;28773;48.804;9.024;2023-01-29T11:34:22;33.50;30.53;40.70;;
43168;Laerm;28773;48.804;9.024;2023-01-29T11:37:13;33.42;30.43;40.21;;
43168;Laerm;28773;48.804;9.024;2023-01-29T11:39:42;32.81;30.29;40.58;;
43168;Laerm;28773;48.804;9.024;2023-01-29T11:42:08;32.79;30.20;39.88;;
43168;Laerm;28773;48.804;9.024;2023-01-29T11:44:42;33.52;30.53;40.74;;
43168;Laerm;28773;48.804;9.024;2023-01-29T11:49:48;32.96;30.47;40.00;;
43168;Laerm;28773;48.804;9.024;2023-01-29T11:52:14;33.36;30.56;40.04;;
43168;Laerm;28773;48.804;9.024;2023-01-29T11:54:51;33.33;30.42;40.80;;
43168;Laerm;28773;48.804;9.024;2023-01-29T11:57:22;33.35;30.17;41.82;;
43168;Laerm;28773;48.804;9.024;2023-01-29T11:59:49;32.88;30.26;40.07;;
43168;Laerm;28773;48.804;9.024;2023-01-29T12:04:46;33.40;30.41;40.99;;
43168;Laerm;28773;48.804;9.024;2023-01-29T12:07:12;33.31;30.22;42.69;;
43168;Laerm;28773;48.804;9.024;2023-01-29T12:09:39;32.68;30.31;42.60;;
43168;Laerm;28773;48.804;9.024;2023-01-29T12:12:15;33.42;30.28;42.22;;
43168;Laerm;28773;48.804;9.024;2023-01-29T12:14:41;32.64;30.46;39.22;;
43168;Laerm;28773;48.804;9.024;2023-01-29T12:22:14;33.40;30.49;40.05;;
43168;Laerm;28773;48.804;9.024;2023-01-29T12:24:57;32.59;30.36;38.79;;
43168;Laerm;28773;48.804;9.024;2023-01-29T12:27:37;33.15;30.40;40.67;;
43168;Laerm;28773;48.804;9.024;2023-01-29T12:30:11;32.35;30.46;40.01;;
43168;Laerm;28773;48.804;9.024;2023-01-29T12:35:11;33.53;30.30;40.28;;
43168;Laerm;28773;48.804;9.024;2023-01-29T12:40:17;32.61;30.55;40.83;;
43168;Laerm;28773;48.804;9.024;2023-01-29T12:42:47;32.92;30.52;39.01;;
43168;Laerm;28773;48.804;9.024;2023-01-29T12:45:15;33.19;30.52;40.04;;
43168;Laerm;28773;48.804;9.024;2023-01-29T12:47:52;33.72;30.44;40.73;;
43168;Laerm;28773;48.804;9.024;2023-01-29T12:50:29;32.94;30.50;39.74;;
43168;Laerm;28773;48.804;9.024;2023-01-29T12:55:23;33.38;30.65;41.18;;
43168;Laerm;28773;48.804;9.024;2023-01-29T12:58:01;33.49;30.62;39.32;;
43168;Laerm;28773;48.804;9.024;2023-01-29T13:00:28;32.86;30.52;40.21;;
43168;Laerm;28773;48.804;9.024;2023-01-29T13:05:28;33.20;30.67;39.19;;
43168;Laerm;28773;48.804;9.024;2023-01-29T13:08:00;33.30;30.51;40.48;;
43168;Laerm;28773;48.804;9.024;2023-01-29T13:10:28;33.25;30.55;39.82;;
43168;Laerm;28773;48.804;9.024;2023-01-29T13:13:01;33.25;30.56;40.19;;
43168;Laerm;28773;48.804;9.024;2023-01-29T13:15:30;32.42;30.39;41.03;;
43168;Laerm;28773;48.804;9.024;2023-01-29T13:20:45;33.57;30.44;41.06;;
43168;Laerm;28773;48.804;9.024;2023-01-29T13:23:20;33.58;30.53;40.06;;
43168;Laerm;28773;48.804;9.024;2023-01-29T13:25:48;32.99;30.41;38.74;;
43168;Laerm;28773;48.804;9.024;2023-01-29T13:28:17;33.32;30.52;40.55;;
43168;Laerm;28773;48.804;9.024;2023-01-29T13:30:43;32.91;30.54;39.62;;
43168;Laerm;28773;48.804;9.024;2023-01-29T13:33:14;33.67;30.36;42.16;;
43168;Laerm;28773;48.804;9.024;2023-01-29T13:35:43;33.70;30.43;42.00;;
43168;Laerm;28773;48.804;9.024;2023-01-29T13:38:23;32.96;30.53;38.99;;
43168;Laerm;28773;48.804;9.024;2023-01-29T13:40:49;33.12;30.33;39.80;;
43168;Laerm;28773;48.804;9.024;2023-01-29T13:43:19;33.53;30.54;42.68;;
43168;Laerm;28773;48.804;9.024;2023-01-29T13:45:45;32.38;30.57;38.62;;
43168;Laerm;28773;48.804;9.024;2023-01-29T13:48:20;32.75;30.39;39.23;;
43168;Laerm;28773;48.804;9.024;2023-01-29T13:50:47;33.48;30.37;40.13;;
43168;Laerm;28773;48.804;9.024;2023-01-29T13:53:22;32.99;30.55;42.08;;
43168;Laerm;28773;48.804;9.024;2023-01-29T13:55:49;32.87;30.46;39.80;;
43168;Laerm;28773;48.804;9.024;2023-01-29T14:00:58;33.36;30.38;40.59;;
43168;Laerm;28773;48.804;9.024;2023-01-29T14:13:42;32.72;30.54;40.48;;
43168;Laerm;28773;48.804;9.024;2023-01-29T14:18:36;33.07;30.43;38.70;;
43168;Laerm;28773;48.804;9.024;2023-01-29T14:23:43;33.19;30.55;43.00;;
43168;Laerm;28773;48.804;9.024;2023-01-29T14:26:17;33.45;30.33;40.83;;
43168;Laerm;28773;48.804;9.024;2023-01-29T14:28:45;32.88;30.29;40.62;;
43168;Laerm;28773;48.804;9.024;2023-01-29T14:31:26;33.15;30.26;40.50;;
43168;Laerm;28773;48.804;9.024;2023-01-29T14:33:51;32.96;30.36;39.33;;
43168;Laerm;28773;48.804;9.024;2023-01-29T14:36:17;33.06;30.28;38.74;;
43168;Laerm;28773;48.804;9.024;2023-01-29T14:38:46;33.43;30.43;39.72;;
43168;Laerm;28773;48.804;9.024;2023-01-29T14:41:19;33.62;30.51;40.72;;
43168;Laerm;28773;48.804;9.024;2023-01-29T14:43:48;32.87;30.40;39.79;;
43168;Laerm;28773;48.804;9.024;2023-01-29T14:48:57;33.07;30.49;39.23;;
43168;Laerm;28773;48.804;9.024;2023-01-29T14:51:22;33.35;30.65;40.96;;
43168;Laerm;28773;48.804;9.024;2023-01-29T14:58:53;33.06;30.61;38.61;;
43168;Laerm;28773;48.804;9.024;2023-01-29T15:01:21;33.77;30.96;40.07;;
43168;Laerm;28773;48.804;9.024;2023-01-29T15:06:17;33.49;30.61;39.96;;
43168;Laerm;28773;48.804;9.024;2023-01-29T15:08:52;33.38;30.62;38.74;;
43168;Laerm;28773;48.804;9.024;2023-01-29T15:14:28;32.85;30.74;39.43;;
43168;Laerm;28773;48.804;9.024;2023-01-29T15:19:41;33.18;30.80;40.34;;
43168;Laerm;28773;48.804;9.024;2023-01-29T15:22:10;33.44;30.87;40.60;;
43168;Laerm;28773;48.804;9.024;2023-01-29T15:24:37;33.76;30.62;40.25;;
43168;Laerm;28773;48.804;9.024;2023-01-29T15:27:02;33.01;30.81;39.13;;
43168;Laerm;28773;48.804;9.024;2023-01-29T15:29:27;33.07;30.81;40.37;;
43168;Laerm;28773;48.804;9.024;2023-01-29T15:31:54;33.32;30.58;39.11;;
43168;Laerm;28773;48.804;9.024;2023-01-29T15:34:19;33.47;30.68;39.23;;
43168;Laerm;28773;48.804;9.024;2023-01-29T15:36:46;32.68;30.81;38.26;;
43168;Laerm;28773;48.804;9.024;2023-01-29T15:41:36;33.74;30.85;42.87;;
43168;Laerm;28773;48.804;9.024;2023-01-29T15:44:02;33.62;30.91;39.57;;
43168;Laerm;28773;48.804;9.024;2023-01-29T15:46:34;33.06;30.86;38.07;;
43168;Laerm;28773;48.804;9.024;2023-01-29T15:49:04;33.03;30.79;38.71;;
43168;Laerm;28773;48.804;9.024;2023-01-29T15:51:30;33.30;30.65;39.22;;
43168;Laerm;28773;48.804;9.024;2023-01-29T15:53:57;33.51;30.95;40.46;;
43168;Laerm;28773;48.804;9.024;2023-01-29T15:56:36;32.95;30.55;39.25;;
43168;Laerm;28773;48.804;9.024;2023-01-29T15:59:03;32.50;30.94;38.23;;
43168;Laerm;28773;48.804;9.024;2023-01-29T16:01:29;33.07;30.85;39.95;;
43168;Laerm;28773;48.804;9.024;2023-01-29T16:03:58;33.50;31.01;41.16;;
43168;Laerm;28773;48.804;9.024;2023-01-29T16:06:36;33.45;31.09;38.93;;